Terminal Aerodrome Forecast
Issued by NWS Sterling, VA

Current Version | Previous Version | Graphics & Text | Print | Product List | Glossary On
Versions: 1 2 3 4 5 6 7 8 9 10 11 12 13 14 15 16 17 18 19 20 21 22 23 24 25 26 27
000
FTUS41 KLWX 172100 RRB
TAFDCA
TAF
KDCA 172120Z 1721/1818 19011G18KT P6SM FEW050 SCT250
     FM180100 23007KT P6SM FEW250
     FM181400 28011KT P6SM SCT250
     FM181600 29014KT P6SM SCT050=

USA.gov is the U.S. government's official web portal to all federal, state and local government web resources and services.